Terminal Aerodrome Forecast
Issued by NWS

Home | Current Version | Previous Version | Text Only | Print | Product List | Glossary On
Versions: 1 2 3 4 5 6 7 8 9 10 11 12 13 14 15 16 17 18 19 20 21 22 23 24 25 26
708
FTUS46 KSEW 100905 AAB
TAFOLM
TAF AMD
KOLM 100905Z 1009/1106 00000KT P6SM BKN250
      TEMPO 1010/1014 1SM BR BKN001 OVC250
     FM101400 18006KT P6SM OVC100
     FM102000 18006KT P6SM OVC040
      TEMPO 1020/1024 -RA=

USA.gov is the U.S. government's official web portal to all federal, state and local government web resources and services.